sensor_id;sensor_type;location;lat;lon;timestamp;P1;durP1;ratioP1;P2;durP2;ratioP2
1402;SDS011;696;48.546;9.896;2023-10-19T00:00:33;27.00;;;13.88;;
1402;SDS011;696;48.546;9.896;2023-10-19T00:02:59;23.88;;;12.82;;
1402;SDS011;696;48.546;9.896;2023-10-19T00:05:27;19.15;;;12.52;;
1402;SDS011;696;48.546;9.896;2023-10-19T00:07:57;20.25;;;12.88;;
1402;SDS011;696;48.546;9.896;2023-10-19T00:10:23;21.27;;;12.82;;
1402;SDS011;696;48.546;9.896;2023-10-19T00:12:51;24.02;;;13.63;;
1402;SDS011;696;48.546;9.896;2023-10-19T00:15:25;17.85;;;12.32;;
1402;SDS011;696;48.546;9.896;2023-10-19T00:17:55;21.33;;;12.68;;
1402;SDS011;696;48.546;9.896;2023-10-19T00:20:20;22.90;;;13.30;;
1402;SDS011;696;48.546;9.896;2023-10-19T00:23:08;19.70;;;14.13;;
1402;SDS011;696;48.546;9.896;2023-10-19T00:25:35;21.23;;;13.75;;
1402;SDS011;696;48.546;9.896;2023-10-19T00:28:00;22.45;;;14.07;;
1402;SDS011;696;48.546;9.896;2023-10-19T00:30:29;21.58;;;13.85;;
1402;SDS011;696;48.546;9.896;2023-10-19T00:32:57;26.55;;;13.25;;
1402;SDS011;696;48.546;9.896;2023-10-19T00:35:28;23.50;;;13.63;;
1402;SDS011;696;48.546;9.896;2023-10-19T00:37:59;23.63;;;13.75;;
1402;SDS011;696;48.546;9.896;2023-10-19T00:40:51;24.27;;;14.30;;
1402;SDS011;696;48.546;9.896;2023-10-19T00:46:15;19.97;;;13.40;;
1402;SDS011;696;48.546;9.896;2023-10-19T00:48:45;19.02;;;12.05;;
1402;SDS011;696;48.546;9.896;2023-10-19T00:51:14;25.75;;;14.65;;
1402;SDS011;696;48.546;9.896;2023-10-19T00:53:58;29.00;;;14.43;;
1402;SDS011;696;48.546;9.896;2023-10-19T00:56:36;22.00;;;14.75;;
1402;SDS011;696;48.546;9.896;2023-10-19T00:59:02;25.52;;;14.70;;
1402;SDS011;696;48.546;9.896;2023-10-19T01:01:44;22.98;;;14.40;;
1402;SDS011;696;48.546;9.896;2023-10-19T01:04:13;23.83;;;14.60;;
1402;SDS011;696;48.546;9.896;2023-10-19T01:06:47;25.75;;;15.10;;
1402;SDS011;696;48.546;9.896;2023-10-19T01:09:31;26.70;;;13.52;;
1402;SDS011;696;48.546;9.896;2023-10-19T01:12:03;21.67;;;13.30;;
1402;SDS011;696;48.546;9.896;2023-10-19T01:15:00;26.02;;;14.57;;
1402;SDS011;696;48.546;9.896;2023-10-19T01:17:39;21.63;;;14.02;;
1402;SDS011;696;48.546;9.896;2023-10-19T01:20:07;26.33;;;14.52;;
1402;SDS011;696;48.546;9.896;2023-10-19T01:22:46;22.92;;;15.18;;
1402;SDS011;696;48.546;9.896;2023-10-19T01:25:14;23.67;;;14.27;;
1402;SDS011;696;48.546;9.896;2023-10-19T01:27:41;25.27;;;14.13;;
1402;SDS011;696;48.546;9.896;2023-10-19T01:30:07;26.70;;;15.07;;
1402;SDS011;696;48.546;9.896;2023-10-19T01:32:34;21.20;;;14.05;;
1402;SDS011;696;48.546;9.896;2023-10-19T01:35:00;23.90;;;15.52;;
1402;SDS011;696;48.546;9.896;2023-10-19T01:37:25;26.27;;;15.45;;
1402;SDS011;696;48.546;9.896;2023-10-19T01:39:51;20.48;;;13.80;;
1402;SDS011;696;48.546;9.896;2023-10-19T01:42:17;20.75;;;12.85;;
1402;SDS011;696;48.546;9.896;2023-10-19T01:44:42;25.02;;;14.32;;
1402;SDS011;696;48.546;9.896;2023-10-19T01:47:08;23.92;;;14.52;;
1402;SDS011;696;48.546;9.896;2023-10-19T01:49:33;24.08;;;14.05;;
1402;SDS011;696;48.546;9.896;2023-10-19T01:51:59;23.63;;;14.40;;
1402;SDS011;696;48.546;9.896;2023-10-19T01:54:25;22.30;;;13.82;;
1402;SDS011;696;48.546;9.896;2023-10-19T01:56:55;23.58;;;14.30;;
1402;SDS011;696;48.546;9.896;2023-10-19T01:59:25;26.35;;;14.30;;
1402;SDS011;696;48.546;9.896;2023-10-19T02:01:55;24.27;;;14.52;;
1402;SDS011;696;48.546;9.896;2023-10-19T02:04:22;25.02;;;14.27;;
1402;SDS011;696;48.546;9.896;2023-10-19T02:06:48;28.35;;;15.02;;
1402;SDS011;696;48.546;9.896;2023-10-19T02:09:15;28.40;;;14.40;;
1402;SDS011;696;48.546;9.896;2023-10-19T02:11:54;25.60;;;13.75;;
1402;SDS011;696;48.546;9.896;2023-10-19T02:14:23;24.70;;;15.50;;
1402;SDS011;696;48.546;9.896;2023-10-19T02:16:54;26.10;;;14.25;;
1402;SDS011;696;48.546;9.896;2023-10-19T02:19:24;26.33;;;15.40;;
1402;SDS011;696;48.546;9.896;2023-10-19T02:21:54;21.98;;;14.20;;
1402;SDS011;696;48.546;9.896;2023-10-19T02:24:23;23.00;;;15.30;;
1402;SDS011;696;48.546;9.896;2023-10-19T02:26:50;23.48;;;15.15;;
1402;SDS011;696;48.546;9.896;2023-10-19T02:29:17;24.58;;;13.60;;
1402;SDS011;696;48.546;9.896;2023-10-19T02:31:43;26.15;;;14.25;;
1402;SDS011;696;48.546;9.896;2023-10-19T02:34:11;26.85;;;14.20;;
1402;SDS011;696;48.546;9.896;2023-10-19T02:36:40;23.10;;;14.60;;
1402;SDS011;696;48.546;9.896;2023-10-19T02:39:09;22.42;;;14.55;;
1402;SDS011;696;48.546;9.896;2023-10-19T02:41:39;24.15;;;13.52;;
1402;SDS011;696;48.546;9.896;2023-10-19T02:44:10;28.23;;;16.20;;
1402;SDS011;696;48.546;9.896;2023-10-19T02:46:50;23.00;;;14.60;;
1402;SDS011;696;48.546;9.896;2023-10-19T02:49:17;24.50;;;14.85;;
1402;SDS011;696;48.546;9.896;2023-10-19T02:51:44;23.38;;;13.63;;
1402;SDS011;696;48.546;9.896;2023-10-19T02:54:14;25.83;;;14.68;;
1402;SDS011;696;48.546;9.896;2023-10-19T02:56:44;23.30;;;14.07;;
1402;SDS011;696;48.546;9.896;2023-10-19T02:59:14;32.72;;;14.23;;
1402;SDS011;696;48.546;9.896;2023-10-19T03:01:41;25.92;;;14.77;;
1402;SDS011;696;48.546;9.896;2023-10-19T03:04:09;23.45;;;13.68;;
1402;SDS011;696;48.546;9.896;2023-10-19T03:06:37;24.48;;;14.25;;
1402;SDS011;696;48.546;9.896;2023-10-19T03:09:05;22.30;;;14.10;;
1402;SDS011;696;48.546;9.896;2023-10-19T03:11:47;22.98;;;14.60;;
1402;SDS011;696;48.546;9.896;2023-10-19T03:14:17;23.60;;;14.93;;
1402;SDS011;696;48.546;9.896;2023-10-19T03:16:43;20.10;;;13.93;;
1402;SDS011;696;48.546;9.896;2023-10-19T03:19:08;21.67;;;13.98;;
1402;SDS011;696;48.546;9.896;2023-10-19T03:21:34;22.88;;;14.35;;
1402;SDS011;696;48.546;9.896;2023-10-19T03:26:38;22.88;;;13.82;;
1402;SDS011;696;48.546;9.896;2023-10-19T03:29:08;18.52;;;14.10;;
1402;SDS011;696;48.546;9.896;2023-10-19T03:31:54;21.67;;;14.45;;
1402;SDS011;696;48.546;9.896;2023-10-19T03:34:19;22.65;;;14.95;;
1402;SDS011;696;48.546;9.896;2023-10-19T03:36:48;26.08;;;14.80;;
1402;SDS011;696;48.546;9.896;2023-10-19T03:39:15;20.95;;;13.55;;
1402;SDS011;696;48.546;9.896;2023-10-19T03:41:43;24.15;;;14.50;;
1402;SDS011;696;48.546;9.896;2023-10-19T03:44:09;26.17;;;14.45;;
1402;SDS011;696;48.546;9.896;2023-10-19T03:46:58;21.88;;;14.27;;
1402;SDS011;696;48.546;9.896;2023-10-19T03:49:29;27.90;;;16.60;;
1402;SDS011;696;48.546;9.896;2023-10-19T03:52:03;27.50;;;15.85;;
1402;SDS011;696;48.546;9.896;2023-10-19T03:54:36;23.30;;;14.52;;
1402;SDS011;696;48.546;9.896;2023-10-19T03:57:05;25.23;;;15.57;;
1402;SDS011;696;48.546;9.896;2023-10-19T03:59:55;26.08;;;15.25;;
1402;SDS011;696;48.546;9.896;2023-10-19T04:02:27;23.00;;;14.57;;
1402;SDS011;696;48.546;9.896;2023-10-19T04:05:00;24.23;;;14.38;;
1402;SDS011;696;48.546;9.896;2023-10-19T04:07:28;25.73;;;14.20;;
1402;SDS011;696;48.546;9.896;2023-10-19T04:09:56;19.65;;;13.25;;
1402;SDS011;696;48.546;9.896;2023-10-19T04:12:34;21.05;;;12.48;;
1402;SDS011;696;48.546;9.896;2023-10-19T04:15:03;23.95;;;13.43;;
1402;SDS011;696;48.546;9.896;2023-10-19T04:17:37;19.42;;;13.45;;
1402;SDS011;696;48.546;9.896;2023-10-19T04:20:04;24.17;;;14.23;;
1402;SDS011;696;48.546;9.896;2023-10-19T04:22:50;21.55;;;13.85;;
1402;SDS011;696;48.546;9.896;2023-10-19T04:25:16;22.60;;;14.38;;
1402;SDS011;696;48.546;9.896;2023-10-19T04:27:45;21.10;;;12.88;;
1402;SDS011;696;48.546;9.896;2023-10-19T04:30:12;21.00;;;13.35;;
1402;SDS011;696;48.546;9.896;2023-10-19T04:32:46;22.23;;;13.05;;
1402;SDS011;696;48.546;9.896;2023-10-19T04:35:12;18.02;;;12.23;;
1402;SDS011;696;48.546;9.896;2023-10-19T04:37:39;27.50;;;13.80;;
1402;SDS011;696;48.546;9.896;2023-10-19T04:40:10;22.65;;;13.40;;
1402;SDS011;696;48.546;9.896;2023-10-19T04:42:37;23.63;;;13.60;;
1402;SDS011;696;48.546;9.896;2023-10-19T04:45:03;29.88;;;13.27;;
1402;SDS011;696;48.546;9.896;2023-10-19T04:47:30;20.27;;;12.90;;
1402;SDS011;696;48.546;9.896;2023-10-19T04:49:55;27.58;;;14.60;;
1402;SDS011;696;48.546;9.896;2023-10-19T04:52:21;19.13;;;13.63;;
1402;SDS011;696;48.546;9.896;2023-10-19T04:54:46;19.88;;;12.32;;
1402;SDS011;696;48.546;9.896;2023-10-19T04:57:12;23.95;;;12.60;;
1402;SDS011;696;48.546;9.896;2023-10-19T04:59:37;24.48;;;12.70;;
1402;SDS011;696;48.546;9.896;2023-10-19T05:02:02;25.45;;;14.38;;
1402;SDS011;696;48.546;9.896;2023-10-19T05:04:28;21.48;;;14.15;;
1402;SDS011;696;48.546;9.896;2023-10-19T05:06:54;23.10;;;14.40;;
1402;SDS011;696;48.546;9.896;2023-10-19T05:09:20;27.65;;;14.73;;
1402;SDS011;696;48.546;9.896;2023-10-19T05:11:45;22.90;;;14.27;;
1402;SDS011;696;48.546;9.896;2023-10-19T05:14:11;19.80;;;12.38;;
1402;SDS011;696;48.546;9.896;2023-10-19T05:16:39;25.90;;;13.60;;
1402;SDS011;696;48.546;9.896;2023-10-19T05:19:07;21.77;;;13.32;;
1402;SDS011;696;48.546;9.896;2023-10-19T05:21:32;20.70;;;13.70;;
1402;SDS011;696;48.546;9.896;2023-10-19T05:23:59;17.48;;;11.88;;
1402;SDS011;696;48.546;9.896;2023-10-19T05:26:25;26.17;;;14.43;;
1402;SDS011;696;48.546;9.896;2023-10-19T05:28:51;22.00;;;13.75;;
1402;SDS011;696;48.546;9.896;2023-10-19T05:31:16;23.52;;;14.15;;
1402;SDS011;696;48.546;9.896;2023-10-19T05:33:42;26.00;;;14.68;;
1402;SDS011;696;48.546;9.896;2023-10-19T05:36:07;20.85;;;13.60;;
1402;SDS011;696;48.546;9.896;2023-10-19T05:38:32;18.48;;;13.15;;
1402;SDS011;696;48.546;9.896;2023-10-19T05:40:58;22.08;;;13.68;;
1402;SDS011;696;48.546;9.896;2023-10-19T05:43:26;21.35;;;14.48;;
1402;SDS011;696;48.546;9.896;2023-10-19T05:45:53;21.60;;;13.60;;
1402;SDS011;696;48.546;9.896;2023-10-19T05:48:19;21.13;;;12.65;;
1402;SDS011;696;48.546;9.896;2023-10-19T05:50:45;19.52;;;12.80;;
1402;SDS011;696;48.546;9.896;2023-10-19T05:53:10;22.23;;;12.75;;
1402;SDS011;696;48.546;9.896;2023-10-19T05:55:35;19.80;;;12.35;;
1402;SDS011;696;48.546;9.896;2023-10-19T05:58:01;24.88;;;14.75;;
1402;SDS011;696;48.546;9.896;2023-10-19T06:00:29;24.15;;;14.15;;
1402;SDS011;696;48.546;9.896;2023-10-19T06:02:55;20.27;;;12.60;;
1402;SDS011;696;48.546;9.896;2023-10-19T06:05:22;19.73;;;13.45;;
1402;SDS011;696;48.546;9.896;2023-10-19T06:07:48;19.55;;;12.65;;
1402;SDS011;696;48.546;9.896;2023-10-19T06:10:16;23.63;;;13.32;;
1402;SDS011;696;48.546;9.896;2023-10-19T06:12:43;23.25;;;14.50;;
1402;SDS011;696;48.546;9.896;2023-10-19T06:15:10;19.70;;;12.63;;
1402;SDS011;696;48.546;9.896;2023-10-19T06:17:39;22.75;;;13.77;;
1402;SDS011;696;48.546;9.896;2023-10-19T06:20:06;17.88;;;12.45;;
1402;SDS011;696;48.546;9.896;2023-10-19T06:22:34;17.95;;;12.15;;
1402;SDS011;696;48.546;9.896;2023-10-19T06:25:00;23.65;;;12.65;;
1402;SDS011;696;48.546;9.896;2023-10-19T06:27:26;17.45;;;11.85;;
1402;SDS011;696;48.546;9.896;2023-10-19T06:29:52;20.75;;;13.48;;
1402;SDS011;696;48.546;9.896;2023-10-19T06:32:18;21.63;;;12.88;;
1402;SDS011;696;48.546;9.896;2023-10-19T06:34:43;16.48;;;11.13;;
1402;SDS011;696;48.546;9.896;2023-10-19T06:37:08;22.42;;;12.38;;
1402;SDS011;696;48.546;9.896;2023-10-19T06:39:35;17.20;;;11.15;;
1402;SDS011;696;48.546;9.896;2023-10-19T06:42:05;19.70;;;13.40;;
1402;SDS011;696;48.546;9.896;2023-10-19T06:44:34;24.50;;;14.07;;
1402;SDS011;696;48.546;9.896;2023-10-19T06:46:59;25.10;;;14.55;;
1402;SDS011;696;48.546;9.896;2023-10-19T06:49:25;32.03;;;18.73;;
1402;SDS011;696;48.546;9.896;2023-10-19T06:51:50;29.75;;;16.52;;
1402;SDS011;696;48.546;9.896;2023-10-19T06:54:15;22.65;;;14.27;;
1402;SDS011;696;48.546;9.896;2023-10-19T06:56:41;23.58;;;13.95;;
1402;SDS011;696;48.546;9.896;2023-10-19T06:59:06;19.63;;;12.77;;
1402;SDS011;696;48.546;9.896;2023-10-19T07:01:32;22.98;;;13.20;;
1402;SDS011;696;48.546;9.896;2023-10-19T07:03:57;24.75;;;16.05;;
1402;SDS011;696;48.546;9.896;2023-10-19T07:06:23;26.00;;;16.05;;
1402;SDS011;696;48.546;9.896;2023-10-19T07:08:49;22.90;;;13.70;;
1402;SDS011;696;48.546;9.896;2023-10-19T07:11:14;21.92;;;14.00;;
1402;SDS011;696;48.546;9.896;2023-10-19T07:13:39;21.65;;;12.98;;
1402;SDS011;696;48.546;9.896;2023-10-19T07:16:05;20.13;;;12.65;;
1402;SDS011;696;48.546;9.896;2023-10-19T07:18:34;19.70;;;10.85;;
1402;SDS011;696;48.546;9.896;2023-10-19T07:20:59;16.50;;;11.10;;
1402;SDS011;696;48.546;9.896;2023-10-19T07:23:28;19.05;;;13.20;;
1402;SDS011;696;48.546;9.896;2023-10-19T07:25:54;25.50;;;15.27;;
1402;SDS011;696;48.546;9.896;2023-10-19T07:28:21;22.27;;;13.70;;
1402;SDS011;696;48.546;9.896;2023-10-19T07:30:47;23.98;;;12.82;;
1402;SDS011;696;48.546;9.896;2023-10-19T07:33:14;21.08;;;14.25;;
1402;SDS011;696;48.546;9.896;2023-10-19T07:35:45;22.30;;;14.98;;
1402;SDS011;696;48.546;9.896;2023-10-19T07:38:15;27.13;;;15.07;;
1402;SDS011;696;48.546;9.896;2023-10-19T07:40:47;32.60;;;15.82;;
1402;SDS011;696;48.546;9.896;2023-10-19T07:43:13;19.33;;;12.75;;
1402;SDS011;696;48.546;9.896;2023-10-19T07:45:39;16.48;;;12.00;;
1402;SDS011;696;48.546;9.896;2023-10-19T07:48:05;21.48;;;13.30;;
1402;SDS011;696;48.546;9.896;2023-10-19T07:50:36;24.90;;;14.20;;
1402;SDS011;696;48.546;9.896;2023-10-19T07:53:02;27.42;;;15.43;;
1402;SDS011;696;48.546;9.896;2023-10-19T07:55:28;24.15;;;14.43;;
1402;SDS011;696;48.546;9.896;2023-10-19T07:57:56;19.42;;;12.82;;
1402;SDS011;696;48.546;9.896;2023-10-19T08:00:25;20.15;;;12.45;;
1402;SDS011;696;48.546;9.896;2023-10-19T08:02:51;20.38;;;12.20;;
1402;SDS011;696;48.546;9.896;2023-10-19T08:05:19;24.80;;;13.23;;
1402;SDS011;696;48.546;9.896;2023-10-19T08:07:45;17.70;;;12.52;;
1402;SDS011;696;48.546;9.896;2023-10-19T08:10:13;20.00;;;11.93;;
1402;SDS011;696;48.546;9.896;2023-10-19T08:12:42;20.55;;;13.40;;
1402;SDS011;696;48.546;9.896;2023-10-19T08:15:08;27.75;;;12.75;;
1402;SDS011;696;48.546;9.896;2023-10-19T08:17:38;33.28;;;14.48;;
1402;SDS011;696;48.546;9.896;2023-10-19T08:20:08;19.52;;;13.68;;
1402;SDS011;696;48.546;9.896;2023-10-19T08:22:36;19.48;;;13.30;;
1402;SDS011;696;48.546;9.896;2023-10-19T08:25:02;18.17;;;12.85;;
1402;SDS011;696;48.546;9.896;2023-10-19T08:27:37;21.58;;;13.52;;
1402;SDS011;696;48.546;9.896;2023-10-19T08:30:05;20.05;;;12.68;;
1402;SDS011;696;48.546;9.896;2023-10-19T08:32:34;19.85;;;12.70;;
1402;SDS011;696;48.546;9.896;2023-10-19T08:35:01;18.42;;;11.32;;
1402;SDS011;696;48.546;9.896;2023-10-19T08:37:27;15.77;;;10.70;;
1402;SDS011;696;48.546;9.896;2023-10-19T08:39:53;17.92;;;10.45;;
1402;SDS011;696;48.546;9.896;2023-10-19T08:42:19;16.67;;;10.50;;
1402;SDS011;696;48.546;9.896;2023-10-19T08:44:45;19.88;;;10.73;;
1402;SDS011;696;48.546;9.896;2023-10-19T08:47:10;19.83;;;12.07;;
1402;SDS011;696;48.546;9.896;2023-10-19T08:49:37;21.10;;;12.13;;
1402;SDS011;696;48.546;9.896;2023-10-19T08:52:03;18.88;;;11.27;;
1402;SDS011;696;48.546;9.896;2023-10-19T08:54:29;21.10;;;11.00;;
1402;SDS011;696;48.546;9.896;2023-10-19T08:56:54;24.20;;;11.93;;
1402;SDS011;696;48.546;9.896;2023-10-19T08:59:20;15.30;;;10.70;;
1402;SDS011;696;48.546;9.896;2023-10-19T09:01:46;16.58;;;11.00;;
1402;SDS011;696;48.546;9.896;2023-10-19T09:04:12;18.55;;;11.75;;
1402;SDS011;696;48.546;9.896;2023-10-19T09:06:41;17.98;;;11.32;;
1402;SDS011;696;48.546;9.896;2023-10-19T09:09:10;15.98;;;10.90;;
1402;SDS011;696;48.546;9.896;2023-10-19T09:11:45;21.90;;;12.40;;
1402;SDS011;696;48.546;9.896;2023-10-19T09:14:11;20.23;;;11.50;;
1402;SDS011;696;48.546;9.896;2023-10-19T09:16:38;18.48;;;12.07;;
1402;SDS011;696;48.546;9.896;2023-10-19T09:19:04;22.35;;;12.10;;
1402;SDS011;696;48.546;9.896;2023-10-19T09:21:29;21.95;;;12.45;;
1402;SDS011;696;48.546;9.896;2023-10-19T09:23:58;21.42;;;12.45;;
1402;SDS011;696;48.546;9.896;2023-10-19T09:26:24;25.10;;;12.52;;
1402;SDS011;696;48.546;9.896;2023-10-19T09:28:50;25.23;;;12.15;;
1402;SDS011;696;48.546;9.896;2023-10-19T09:31:19;19.50;;;12.15;;
1402;SDS011;696;48.546;9.896;2023-10-19T09:33:47;19.88;;;11.60;;
1402;SDS011;696;48.546;9.896;2023-10-19T09:36:19;22.98;;;12.88;;
1402;SDS011;696;48.546;9.896;2023-10-19T09:38:47;21.95;;;10.82;;
1402;SDS011;696;48.546;9.896;2023-10-19T09:41:14;26.55;;;11.68;;
1402;SDS011;696;48.546;9.896;2023-10-19T09:43:48;20.80;;;12.95;;
1402;SDS011;696;48.546;9.896;2023-10-19T09:48:54;14.65;;;10.57;;
1402;SDS011;696;48.546;9.896;2023-10-19T09:51:20;35.50;;;12.75;;
1402;SDS011;696;48.546;9.896;2023-10-19T09:53:51;23.48;;;12.15;;
1402;SDS011;696;48.546;9.896;2023-10-19T09:56:21;20.10;;;13.05;;
1402;SDS011;696;48.546;9.896;2023-10-19T09:58:54;19.30;;;12.70;;
1402;SDS011;696;48.546;9.896;2023-10-19T10:01:22;16.88;;;11.18;;
1402;SDS011;696;48.546;9.896;2023-10-19T10:03:51;21.92;;;13.10;;
1402;SDS011;696;48.546;9.896;2023-10-19T10:06:26;19.25;;;11.77;;
1402;SDS011;696;48.546;9.896;2023-10-19T10:08:56;28.10;;;13.13;;
1402;SDS011;696;48.546;9.896;2023-10-19T10:11:25;19.70;;;11.10;;
1402;SDS011;696;48.546;9.896;2023-10-19T10:13:53;20.60;;;12.07;;
1402;SDS011;696;48.546;9.896;2023-10-19T10:16:21;20.08;;;11.70;;
1402;SDS011;696;48.546;9.896;2023-10-19T10:18:54;24.77;;;12.88;;
1402;SDS011;696;48.546;9.896;2023-10-19T10:21:26;18.92;;;12.50;;
1402;SDS011;696;48.546;9.896;2023-10-19T10:23:54;30.70;;;13.07;;
1402;SDS011;696;48.546;9.896;2023-10-19T10:26:22;19.83;;;12.25;;
1402;SDS011;696;48.546;9.896;2023-10-19T10:29:07;21.23;;;12.43;;
1402;SDS011;696;48.546;9.896;2023-10-19T10:31:49;18.73;;;12.10;;
1402;SDS011;696;48.546;9.896;2023-10-19T10:37:03;18.58;;;12.52;;
1402;SDS011;696;48.546;9.896;2023-10-19T10:39:33;18.05;;;11.90;;
1402;SDS011;696;48.546;9.896;2023-10-19T10:42:02;29.30;;;12.57;;
1402;SDS011;696;48.546;9.896;2023-10-19T10:44:43;21.10;;;12.60;;
1402;SDS011;696;48.546;9.896;2023-10-19T10:47:19;22.38;;;12.77;;
1402;SDS011;696;48.546;9.896;2023-10-19T10:49:56;17.77;;;11.48;;
1402;SDS011;696;48.546;9.896;2023-10-19T10:55:05;16.05;;;10.50;;
1402;SDS011;696;48.546;9.896;2023-10-19T10:57:38;16.67;;;10.05;;
1402;SDS011;696;48.546;9.896;2023-10-19T11:00:08;21.23;;;11.25;;
1402;SDS011;696;48.546;9.896;2023-10-19T11:02:40;19.60;;;11.45;;
1402;SDS011;696;48.546;9.896;2023-10-19T11:05:11;26.95;;;13.82;;
1402;SDS011;696;48.546;9.896;2023-10-19T11:10:28;20.23;;;12.98;;
1402;SDS011;696;48.546;9.896;2023-10-19T11:13:04;23.08;;;13.52;;
1402;SDS011;696;48.546;9.896;2023-10-19T11:15:31;23.50;;;13.15;;
1402;SDS011;696;48.546;9.896;2023-10-19T11:17:57;21.25;;;12.73;;
1402;SDS011;696;48.546;9.896;2023-10-19T11:20:23;18.25;;;11.85;;
1402;SDS011;696;48.546;9.896;2023-10-19T11:22:51;20.75;;;12.02;;
1402;SDS011;696;48.546;9.896;2023-10-19T11:27:45;19.02;;;11.43;;
1402;SDS011;696;48.546;9.896;2023-10-19T11:30:12;20.38;;;11.95;;
1402;SDS011;696;48.546;9.896;2023-10-19T11:32:38;21.67;;;14.05;;
1402;SDS011;696;48.546;9.896;2023-10-19T11:35:04;30.17;;;15.25;;
1402;SDS011;696;48.546;9.896;2023-10-19T11:37:44;31.33;;;14.95;;
1402;SDS011;696;48.546;9.896;2023-10-19T11:40:19;27.02;;;14.82;;
1402;SDS011;696;48.546;9.896;2023-10-19T11:42:45;21.67;;;14.45;;
1402;SDS011;696;48.546;9.896;2023-10-19T11:45:12;26.63;;;14.65;;
1402;SDS011;696;48.546;9.896;2023-10-19T11:47:38;25.85;;;13.70;;
1402;SDS011;696;48.546;9.896;2023-10-19T11:50:03;17.50;;;11.50;;
1402;SDS011;696;48.546;9.896;2023-10-19T11:52:29;24.48;;;12.98;;
1402;SDS011;696;48.546;9.896;2023-10-19T11:54:55;27.88;;;12.52;;
1402;SDS011;696;48.546;9.896;2023-10-19T11:57:21;21.63;;;12.73;;
1402;SDS011;696;48.546;9.896;2023-10-19T11:59:46;16.25;;;11.02;;
1402;SDS011;696;48.546;9.896;2023-10-19T12:02:17;19.85;;;13.13;;
1402;SDS011;696;48.546;9.896;2023-10-19T12:04:43;32.58;;;13.32;;
1402;SDS011;696;48.546;9.896;2023-10-19T12:07:10;20.55;;;13.05;;
1402;SDS011;696;48.546;9.896;2023-10-19T12:09:36;19.52;;;11.88;;
1402;SDS011;696;48.546;9.896;2023-10-19T12:12:01;19.00;;;12.73;;
1402;SDS011;696;48.546;9.896;2023-10-19T12:14:28;24.35;;;12.23;;
1402;SDS011;696;48.546;9.896;2023-10-19T12:16:53;20.25;;;11.65;;
1402;SDS011;696;48.546;9.896;2023-10-19T12:19:19;24.65;;;12.30;;
1402;SDS011;696;48.546;9.896;2023-10-19T12:21:44;22.88;;;13.77;;
1402;SDS011;696;48.546;9.896;2023-10-19T12:24:10;32.22;;;14.27;;
1402;SDS011;696;48.546;9.896;2023-10-19T12:26:36;25.77;;;14.05;;
1402;SDS011;696;48.546;9.896;2023-10-19T12:29:01;24.67;;;13.43;;
1402;SDS011;696;48.546;9.896;2023-10-19T12:31:29;26.20;;;13.80;;
1402;SDS011;696;48.546;9.896;2023-10-19T12:33:55;30.42;;;13.50;;
1402;SDS011;696;48.546;9.896;2023-10-19T12:36:21;31.67;;;15.90;;
1402;SDS011;696;48.546;9.896;2023-10-19T12:38:49;19.48;;;13.23;;
1402;SDS011;696;48.546;9.896;2023-10-19T12:41:16;22.63;;;12.88;;
1402;SDS011;696;48.546;9.896;2023-10-19T12:43:42;17.30;;;11.43;;
1402;SDS011;696;48.546;9.896;2023-10-19T12:46:07;16.42;;;10.77;;
1402;SDS011;696;48.546;9.896;2023-10-19T12:48:34;12.88;;;10.57;;
1402;SDS011;696;48.546;9.896;2023-10-19T12:51:00;19.65;;;12.48;;
1402;SDS011;696;48.546;9.896;2023-10-19T12:53:32;23.47;;;13.10;;
1402;SDS011;696;48.546;9.896;2023-10-19T12:55:59;20.05;;;12.27;;
1402;SDS011;696;48.546;9.896;2023-10-19T12:58:25;19.85;;;11.65;;
1402;SDS011;696;48.546;9.896;2023-10-19T13:00:53;26.60;;;10.85;;
1402;SDS011;696;48.546;9.896;2023-10-19T13:03:20;16.27;;;10.55;;
1402;SDS011;696;48.546;9.896;2023-10-19T13:05:47;18.42;;;10.13;;
1402;SDS011;696;48.546;9.896;2023-10-19T13:08:14;18.42;;;11.68;;
1402;SDS011;696;48.546;9.896;2023-10-19T13:10:44;15.45;;;11.70;;
1402;SDS011;696;48.546;9.896;2023-10-19T13:13:11;17.60;;;11.68;;
1402;SDS011;696;48.546;9.896;2023-10-19T13:15:38;17.75;;;11.23;;
1402;SDS011;696;48.546;9.896;2023-10-19T13:18:06;15.00;;;10.85;;
1402;SDS011;696;48.546;9.896;2023-10-19T13:20:32;19.10;;;11.57;;
1402;SDS011;696;48.546;9.896;2023-10-19T13:23:06;17.55;;;11.30;;
1402;SDS011;696;48.546;9.896;2023-10-19T13:25:36;17.70;;;10.82;;
1402;SDS011;696;48.546;9.896;2023-10-19T13:28:22;18.60;;;10.07;;
1402;SDS011;696;48.546;9.896;2023-10-19T13:30:51;16.33;;;10.43;;
1402;SDS011;696;48.546;9.896;2023-10-19T13:33:18;23.27;;;11.35;;
1402;SDS011;696;48.546;9.896;2023-10-19T13:35:46;19.35;;;12.82;;
1402;SDS011;696;48.546;9.896;2023-10-19T13:38:12;17.48;;;11.27;;
1402;SDS011;696;48.546;9.896;2023-10-19T13:40:42;18.90;;;10.90;;
1402;SDS011;696;48.546;9.896;2023-10-19T13:43:08;21.38;;;11.65;;
1402;SDS011;696;48.546;9.896;2023-10-19T13:45:39;14.32;;;10.48;;
1402;SDS011;696;48.546;9.896;2023-10-19T13:48:06;18.23;;;10.48;;
1402;SDS011;696;48.546;9.896;2023-10-19T13:50:32;18.58;;;11.02;;
1402;SDS011;696;48.546;9.896;2023-10-19T13:52:59;17.77;;;11.15;;
1402;SDS011;696;48.546;9.896;2023-10-19T13:55:26;21.63;;;12.90;;
1402;SDS011;696;48.546;9.896;2023-10-19T13:57:54;23.63;;;13.32;;
1402;SDS011;696;48.546;9.896;2023-10-19T14:00:21;18.10;;;11.75;;
1402;SDS011;696;48.546;9.896;2023-10-19T14:02:58;20.63;;;12.80;;
1402;SDS011;696;48.546;9.896;2023-10-19T14:05:25;21.15;;;12.68;;
1402;SDS011;696;48.546;9.896;2023-10-19T14:07:50;21.20;;;12.13;;
1402;SDS011;696;48.546;9.896;2023-10-19T14:10:17;19.83;;;11.25;;
1402;SDS011;696;48.546;9.896;2023-10-19T14:12:44;22.63;;;13.32;;
1402;SDS011;696;48.546;9.896;2023-10-19T14:15:15;27.98;;;13.43;;
1402;SDS011;696;48.546;9.896;2023-10-19T14:17:42;21.83;;;12.98;;
1402;SDS011;696;48.546;9.896;2023-10-19T14:20:10;25.45;;;13.13;;
1402;SDS011;696;48.546;9.896;2023-10-19T14:22:39;20.73;;;13.48;;
1402;SDS011;696;48.546;9.896;2023-10-19T14:25:08;20.65;;;13.30;;
1402;SDS011;696;48.546;9.896;2023-10-19T14:27:47;24.90;;;15.98;;
1402;SDS011;696;48.546;9.896;2023-10-19T14:30:14;33.33;;;15.68;;
1402;SDS011;696;48.546;9.896;2023-10-19T14:32:41;25.13;;;15.80;;
1402;SDS011;696;48.546;9.896;2023-10-19T14:35:11;22.58;;;14.73;;
1402;SDS011;696;48.546;9.896;2023-10-19T14:37:41;24.83;;;16.85;;
1402;SDS011;696;48.546;9.896;2023-10-19T14:40:17;24.80;;;15.10;;
1402;SDS011;696;48.546;9.896;2023-10-19T14:42:53;22.75;;;14.07;;
1402;SDS011;696;48.546;9.896;2023-10-19T14:45:20;28.02;;;16.23;;
1402;SDS011;696;48.546;9.896;2023-10-19T14:47:49;25.65;;;16.58;;
1402;SDS011;696;48.546;9.896;2023-10-19T14:52:49;25.40;;;14.27;;
1402;SDS011;696;48.546;9.896;2023-10-19T14:55:17;31.38;;;17.15;;
1402;SDS011;696;48.546;9.896;2023-10-19T14:57:43;33.35;;;16.73;;
1402;SDS011;696;48.546;9.896;2023-10-19T15:00:11;31.88;;;17.75;;
1402;SDS011;696;48.546;9.896;2023-10-19T15:02:41;29.58;;;17.15;;
1402;SDS011;696;48.546;9.896;2023-10-19T15:05:07;25.00;;;16.20;;
1402;SDS011;696;48.546;9.896;2023-10-19T15:07:33;32.58;;;15.73;;
1402;SDS011;696;48.546;9.896;2023-10-19T15:09:59;24.17;;;15.93;;
1402;SDS011;696;48.546;9.896;2023-10-19T15:12:27;26.05;;;15.52;;
1402;SDS011;696;48.546;9.896;2023-10-19T15:14:52;25.25;;;16.35;;
1402;SDS011;696;48.546;9.896;2023-10-19T15:17:18;26.15;;;15.43;;
1402;SDS011;696;48.546;9.896;2023-10-19T15:19:44;30.00;;;16.60;;
1402;SDS011;696;48.546;9.896;2023-10-19T15:22:09;30.10;;;15.50;;
1402;SDS011;696;48.546;9.896;2023-10-19T15:24:35;34.63;;;17.30;;
1402;SDS011;696;48.546;9.896;2023-10-19T15:27:02;24.10;;;15.95;;
1402;SDS011;696;48.546;9.896;2023-10-19T15:29:29;26.80;;;16.60;;